Terminal Aerodrome Forecast
Issued by NWS

Home | Current Version | Previous Version | Text Only | Print | Product List | Glossary On
Versions: 1 2 3 4 5 6 7 8 9 10 11 12 13 14 15 16 17 18 19 20 21 22 23 24 25
000
FTUS41 KOKX 040603 RRA
TAFHPN
TAF
KHPN 040603Z 0406/0506 VRB03KT P6SM SCT050 BKN250
      TEMPO 0406/0409 6SM BR
     FM040900 03007KT 6SM BR SCT040 BKN100
     FM041100 04009KT 6SM BR BKN020
     FM041500 08012G17KT P6SM BKN025
     FM042000 09013G18KT P6SM BKN035
     FM050200 08007KT P6SM BKN250
      AMD NOT SKED=

USA.gov is the U.S. government's official web portal to all federal, state and local government web resources and services.